This is the latest recevied weather packets stored in our database for station/object NI4CE-11. If no packets are shown the sender has not sent any weather packets the latest 10 day(s).
| Time | Temp. | Humidity | Pressure | Rain* | Wind** | Luminosity | Snow |
|---|---|---|---|---|---|---|---|
| 1777640684 | 28.89° C | 100% | 1013.3 hPa | 0 mm | - | - | - |
| 1777640411 | 29.44° C | 100% | 1013.3 hPa | 0 mm | - | - | - |
| 1777640111 | 28.89° C | 100% | 1013.2 hPa | 0 mm | - | - | - |
| 1777639811 | 28.89° C | 100% | 1013.3 hPa | 0 mm | - | - | - |
| 1777639511 | 28.33° C | 100% | 1013.2 hPa | 0 mm | - | - | - |
| 1777639359 | 28.33° C | 100% | 1013.1 hPa | 0 mm | - | - | - |
| 1777639276 | 27.22° C | 100% | 1013 hPa | 0 mm | - | - | - |
| 1777639211 | 28.33° C | 100% | 1013.1 hPa | 0 mm | - | - | - |
| 1777638911 | 27.22° C | 100% | 1013 hPa | 0 mm | - | - | - |
| 1777638611 | 27.78° C | 100% | 1013 hPa | 0 mm | - | - | - |
| 1777638311 | 27.22° C | 100% | 1013 hPa | 0 mm | - | - | - |
| 1777638201 | 26.11° C | 100% | 1013 hPa | 0 mm | - | - | - |
| 1777638011 | 26.67° C | 100% | 1013 hPa | 0 mm | - | - | - |
| 1777637711 | 26.67° C | 100% | 1013 hPa | 0 mm | - | - | - |
| 1777637411 | 26.11° C | 100% | 1013 hPa | 0 mm | - | - | - |
| 1777637153 | 25° C | 100% | 1012.9 hPa | 0 mm | - | - | - |
| 1777637111 | 25° C | 100% | 1012.9 hPa | 0 mm | - | - | - |
| 1777636903 | 22.22° C | 100% | 1012.8 hPa | 0 mm | - | - | - |
| 1777636811 | 23.33° C | 100% | 1013 hPa | 0 mm | - | - | - |
| 1777636511 | 23.33° C | 100% | 1012.9 hPa | 0 mm | - | - | - |
| 1777636211 | 22.22° C | 100% | 1012.8 hPa | 0 mm | - | - | - |
| 1777636089 | 22.78° C | 100% | 1012.7 hPa | 0 mm | - | - | - |
| 1777635911 | 22.22° C | 100% | 1012.7 hPa | 0 mm | - | - | - |
| 1777635611 | 23.33° C | 100% | 1012.8 hPa | 0 mm | - | - | - |
| 1777635311 | 22.78° C | 100% | 1012.7 hPa | 0 mm | - | - | - |
* Rain latest hour (hover to see other rain measurements)
** Current wind speed in m/s (hover to see current wind gust speed)